sensor_id;sensor_type;location;lat;lon;timestamp;pressure;altitude;pressure_sealevel;temperature;humidity
30744;BME280;17486;46.738;7.622;2023-05-23T00:01:19;95103.81;;;19.64;54.53
30744;BME280;17486;46.738;7.622;2023-05-23T00:03:45;95074.06;;;19.52;54.77
30744;BME280;17486;46.738;7.622;2023-05-23T00:06:11;95073.25;;;19.51;54.70
30744;BME280;17486;46.738;7.622;2023-05-23T00:08:36;95095.78;;;19.65;54.72
30744;BME280;17486;46.738;7.622;2023-05-23T00:11:02;95107.84;;;19.68;54.80
30744;BME280;17486;46.738;7.622;2023-05-23T00:13:27;95109.66;;;19.67;54.53
30744;BME280;17486;46.738;7.622;2023-05-23T00:15:52;95062.69;;;19.42;54.85
30744;BME280;17486;46.738;7.622;2023-05-23T00:18:18;95103.41;;;19.68;54.70
30744;BME280;17486;46.738;7.622;2023-05-23T00:20:43;95115.63;;;19.69;54.75
30744;BME280;17486;46.738;7.622;2023-05-23T00:23:10;95109.66;;;19.67;54.47
30744;BME280;17486;46.738;7.622;2023-05-23T00:25:43;95107.00;;;19.67;54.50
30744;BME280;17486;46.738;7.622;2023-05-23T00:28:13;95101.31;;;19.62;54.41
30744;BME280;17486;46.738;7.622;2023-05-23T00:30:38;95104.06;;;19.61;54.64
30744;BME280;17486;46.738;7.622;2023-05-23T00:33:04;95114.34;;;19.54;54.59
30744;BME280;17486;46.738;7.622;2023-05-23T00:35:30;95115.72;;;19.48;54.76
30744;BME280;17486;46.738;7.622;2023-05-23T00:37:55;95110.16;;;19.42;54.97
30744;BME280;17486;46.738;7.622;2023-05-23T00:40:21;95110.97;;;19.32;55.26
30744;BME280;17486;46.738;7.622;2023-05-23T00:42:47;95116.91;;;19.34;55.60
30744;BME280;17486;46.738;7.622;2023-05-23T00:45:13;95126.78;;;19.32;55.58
30744;BME280;17486;46.738;7.622;2023-05-23T00:47:42;95123.28;;;19.32;55.81
30744;BME280;17486;46.738;7.622;2023-05-23T00:50:10;95121.50;;;19.32;55.68
30744;BME280;17486;46.738;7.622;2023-05-23T00:52:36;95124.81;;;19.34;55.83
30744;BME280;17486;46.738;7.622;2023-05-23T00:55:03;95127.59;;;19.33;55.95
30744;BME280;17486;46.738;7.622;2023-05-23T00:57:28;95127.44;;;19.25;56.14
30744;BME280;17486;46.738;7.622;2023-05-23T00:59:54;95129.50;;;19.21;56.48
30744;BME280;17486;46.738;7.622;2023-05-23T01:02:19;95131.81;;;19.14;56.81
30744;BME280;17486;46.738;7.622;2023-05-23T01:04:48;95125.81;;;19.02;56.82
30744;BME280;17486;46.738;7.622;2023-05-23T01:07:18;95138.84;;;19.04;57.10
30744;BME280;17486;46.738;7.622;2023-05-23T01:09:44;95137.81;;;18.95;57.44
30744;BME280;17486;46.738;7.622;2023-05-23T01:12:19;95136.97;;;18.73;57.90
30744;BME280;17486;46.738;7.622;2023-05-23T01:27:58;95143.97;;;18.63;59.00
30744;BME280;17486;46.738;7.622;2023-05-23T01:30:26;95129.19;;;18.51;58.97
30744;BME280;17486;46.738;7.622;2023-05-23T01:32:55;95139.63;;;18.52;59.14
30744;BME280;17486;46.738;7.622;2023-05-23T01:35:24;95145.38;;;18.46;59.41
30744;BME280;17486;46.738;7.622;2023-05-23T01:37:54;95142.03;;;18.44;59.46
30744;BME280;17486;46.738;7.622;2023-05-23T01:40:20;95124.22;;;18.36;59.67
30744;BME280;17486;46.738;7.622;2023-05-23T01:42:46;95132.84;;;18.38;60.08
30744;BME280;17486;46.738;7.622;2023-05-23T01:45:13;95131.66;;;18.31;60.08
30744;BME280;17486;46.738;7.622;2023-05-23T01:47:40;95094.47;;;18.03;60.57
30744;BME280;17486;46.738;7.622;2023-05-23T01:50:07;95131.97;;;18.17;60.93
30744;BME280;17486;46.738;7.622;2023-05-23T01:52:34;95130.81;;;18.10;61.17
30744;BME280;17486;46.738;7.622;2023-05-23T01:55:00;95133.72;;;18.06;61.30
30744;BME280;17486;46.738;7.622;2023-05-23T01:57:28;95138.13;;;18.06;61.61
30744;BME280;17486;46.738;7.622;2023-05-23T01:59:55;95135.63;;;18.04;61.49
30744;BME280;17486;46.738;7.622;2023-05-23T02:02:20;95135.34;;;18.08;61.69
30744;BME280;17486;46.738;7.622;2023-05-23T02:04:48;95102.63;;;17.89;61.77
30744;BME280;17486;46.738;7.622;2023-05-23T02:07:13;95129.63;;;18.02;61.70
30744;BME280;17486;46.738;7.622;2023-05-23T02:09:39;95129.63;;;18.02;61.87
30744;BME280;17486;46.738;7.622;2023-05-23T02:12:04;95131.31;;;18.03;61.64
30744;BME280;17486;46.738;7.622;2023-05-23T02:14:30;95134.53;;;18.07;61.71
30744;BME280;17486;46.738;7.622;2023-05-23T02:16:55;95142.16;;;18.10;61.60
30744;BME280;17486;46.738;7.622;2023-05-23T02:19:20;95111.22;;;17.91;61.56
30744;BME280;17486;46.738;7.622;2023-05-23T02:21:46;95140.88;;;18.04;61.55
30744;BME280;17486;46.738;7.622;2023-05-23T02:24:11;95128.66;;;17.92;61.57
30744;BME280;17486;46.738;7.622;2023-05-23T02:26:36;95143.41;;;17.95;61.77
30744;BME280;17486;46.738;7.622;2023-05-23T02:29:02;95144.38;;;17.94;61.88
30744;BME280;17486;46.738;7.622;2023-05-23T02:31:27;95140.53;;;17.86;61.81
30744;BME280;17486;46.738;7.622;2023-05-23T02:33:53;95136.16;;;17.76;61.85
30744;BME280;17486;46.738;7.622;2023-05-23T02:36:18;95154.56;;;17.76;62.03
30744;BME280;17486;46.738;7.622;2023-05-23T02:38:43;95143.09;;;17.77;62.17
30744;BME280;17486;46.738;7.622;2023-05-23T02:41:09;95149.44;;;17.74;62.20
30744;BME280;17486;46.738;7.622;2023-05-23T02:43:34;95116.06;;;17.63;61.90
30744;BME280;17486;46.738;7.622;2023-05-23T02:46:00;95127.66;;;17.72;61.89
30744;BME280;17486;46.738;7.622;2023-05-23T02:48:25;95133.72;;;17.84;61.74
30744;BME280;17486;46.738;7.622;2023-05-23T02:50:50;95124.53;;;17.78;61.53
30744;BME280;17486;46.738;7.622;2023-05-23T02:53:16;95137.09;;;17.86;61.70
30744;BME280;17486;46.738;7.622;2023-05-23T02:55:42;95114.28;;;17.75;61.62
30744;BME280;17486;46.738;7.622;2023-05-23T02:58:07;95139.44;;;17.89;61.41
30744;BME280;17486;46.738;7.622;2023-05-23T03:00:33;95132.91;;;17.83;61.25
30744;BME280;17486;46.738;7.622;2023-05-23T03:02:58;95143.56;;;17.82;61.52
30744;BME280;17486;46.738;7.622;2023-05-23T03:05:24;95115.84;;;17.66;61.08
30744;BME280;17486;46.738;7.622;2023-05-23T03:07:49;95140.44;;;17.77;61.36
30744;BME280;17486;46.738;7.622;2023-05-23T03:10:16;95131.25;;;17.71;61.41
30744;BME280;17486;46.738;7.622;2023-05-23T03:12:42;95134.13;;;17.68;61.67
30744;BME280;17486;46.738;7.622;2023-05-23T03:15:08;95134.47;;;17.74;61.37
30744;BME280;17486;46.738;7.622;2023-05-23T03:17:34;95130.88;;;17.76;60.94
30744;BME280;17486;46.738;7.622;2023-05-23T03:20:00;95141.41;;;17.76;60.68
30744;BME280;17486;46.738;7.622;2023-05-23T03:22:25;95144.72;;;17.78;60.53
30744;BME280;17486;46.738;7.622;2023-05-23T03:24:50;95137.69;;;17.78;60.12
30744;BME280;17486;46.738;7.622;2023-05-23T03:27:16;95118.47;;;17.66;59.72
30744;BME280;17486;46.738;7.622;2023-05-23T03:29:41;95137.81;;;17.77;59.35
30744;BME280;17486;46.738;7.622;2023-05-23T03:32:06;95118.94;;;17.60;59.32
30744;BME280;17486;46.738;7.622;2023-05-23T03:34:33;95143.22;;;17.75;59.37
30744;BME280;17486;46.738;7.622;2023-05-23T03:37:00;95104.38;;;17.56;59.39
30744;BME280;17486;46.738;7.622;2023-05-23T03:39:26;95119.09;;;17.59;59.36
30744;BME280;17486;46.738;7.622;2023-05-23T03:41:51;95156.09;;;17.78;59.06
30744;BME280;17486;46.738;7.622;2023-05-23T03:44:16;95149.28;;;17.76;59.47
30744;BME280;17486;46.738;7.622;2023-05-23T03:46:42;95150.03;;;17.66;59.47
30744;BME280;17486;46.738;7.622;2023-05-23T03:49:07;95144.03;;;17.64;59.57
30744;BME280;17486;46.738;7.622;2023-05-23T03:51:33;95143.44;;;17.61;59.83
30744;BME280;17486;46.738;7.622;2023-05-23T03:53:58;95146.69;;;17.64;59.93
30744;BME280;17486;46.738;7.622;2023-05-23T03:56:23;95149.19;;;17.66;59.53
30744;BME280;17486;46.738;7.622;2023-05-23T03:58:49;95153.25;;;17.70;59.59
30744;BME280;17486;46.738;7.622;2023-05-23T04:01:14;95143.69;;;17.57;59.41
30744;BME280;17486;46.738;7.622;2023-05-23T04:03:40;95158.88;;;17.54;59.58
30744;BME280;17486;46.738;7.622;2023-05-23T04:06:06;95152.19;;;17.50;59.70
30744;BME280;17486;46.738;7.622;2023-05-23T04:08:31;95152.44;;;17.47;59.60
30744;BME280;17486;46.738;7.622;2023-05-23T04:10:59;95152.78;;;17.42;59.56
30744;BME280;17486;46.738;7.622;2023-05-23T04:13:25;95164.03;;;17.44;59.50
30744;BME280;17486;46.738;7.622;2023-05-23T04:15:51;95164.28;;;17.41;59.24
30744;BME280;17486;46.738;7.622;2023-05-23T04:18:16;95143.13;;;17.20;59.22
30744;BME280;17486;46.738;7.622;2023-05-23T04:20:42;95172.03;;;17.31;59.10
30744;BME280;17486;46.738;7.622;2023-05-23T04:23:07;95169.16;;;17.34;59.27
30744;BME280;17486;46.738;7.622;2023-05-23T04:25:33;95159.38;;;17.25;58.90
30744;BME280;17486;46.738;7.622;2023-05-23T04:27:59;95175.41;;;17.33;58.89
30744;BME280;17486;46.738;7.622;2023-05-23T04:30:25;95176.34;;;17.32;59.06
30744;BME280;17486;46.738;7.622;2023-05-23T04:32:50;95178.97;;;17.32;59.01
30744;BME280;17486;46.738;7.622;2023-05-23T04:35:16;95154.81;;;17.16;59.03
30744;BME280;17486;46.738;7.622;2023-05-23T04:37:41;95175.28;;;17.35;58.96
30744;BME280;17486;46.738;7.622;2023-05-23T04:40:07;95172.53;;;17.36;59.00
30744;BME280;17486;46.738;7.622;2023-05-23T04:42:33;95159.63;;;17.33;59.09
30744;BME280;17486;46.738;7.622;2023-05-23T04:44:58;95174.56;;;17.44;59.05
30744;BME280;17486;46.738;7.622;2023-05-23T04:47:26;95185.16;;;17.54;59.49
30744;BME280;17486;46.738;7.622;2023-05-23T04:49:53;95183.28;;;17.56;59.13
30744;BME280;17486;46.738;7.622;2023-05-23T04:52:19;95176.94;;;17.47;59.17
30744;BME280;17486;46.738;7.622;2023-05-23T04:54:45;95193.41;;;17.61;59.09
30744;BME280;17486;46.738;7.622;2023-05-23T04:57:11;95174.19;;;17.49;58.99
30744;BME280;17486;46.738;7.622;2023-05-23T04:59:37;95194.75;;;17.66;58.82
30744;BME280;17486;46.738;7.622;2023-05-23T05:02:02;95192.00;;;17.68;58.54
30744;BME280;17486;46.738;7.622;2023-05-23T05:04:29;95198.69;;;17.72;58.60
30744;BME280;17486;46.738;7.622;2023-05-23T05:06:55;95188.03;;;17.73;58.57
30744;BME280;17486;46.738;7.622;2023-05-23T05:09:20;95195.81;;;17.75;58.25
30744;BME280;17486;46.738;7.622;2023-05-23T05:11:46;95194.72;;;17.78;58.18
30744;BME280;17486;46.738;7.622;2023-05-23T05:14:11;95189.44;;;17.78;58.23
30744;BME280;17486;46.738;7.622;2023-05-23T05:16:36;95194.38;;;17.82;58.14
30744;BME280;17486;46.738;7.622;2023-05-23T05:19:02;95190.78;;;17.83;58.26
30744;BME280;17486;46.738;7.622;2023-05-23T05:21:27;95191.59;;;17.84;58.84
30744;BME280;17486;46.738;7.622;2023-05-23T05:23:52;95181.09;;;17.84;58.17
30744;BME280;17486;46.738;7.622;2023-05-23T05:26:18;95188.50;;;17.90;57.97
30744;BME280;17486;46.738;7.622;2023-05-23T05:28:43;95188.28;;;17.93;57.89
30744;BME280;17486;46.738;7.622;2023-05-23T05:31:09;95192.31;;;17.97;57.61
30744;BME280;17486;46.738;7.622;2023-05-23T05:33:39;95197.97;;;18.04;57.81
30744;BME280;17486;46.738;7.622;2023-05-23T05:36:06;95163.25;;;17.87;57.54
30744;BME280;17486;46.738;7.622;2023-05-23T05:38:31;95160.28;;;17.81;57.48
30744;BME280;17486;46.738;7.622;2023-05-23T05:40:57;95191.38;;;17.98;57.65
30744;BME280;17486;46.738;7.622;2023-05-23T05:43:22;95175.47;;;17.88;57.57
30744;BME280;17486;46.738;7.622;2023-05-23T05:45:47;95189.00;;;17.95;57.89
30744;BME280;17486;46.738;7.622;2023-05-23T05:48:13;95192.09;;;18.00;57.73
30744;BME280;17486;46.738;7.622;2023-05-23T05:50:38;95170.78;;;17.92;57.71
30744;BME280;17486;46.738;7.622;2023-05-23T05:53:04;95192.19;;;18.10;57.84
30744;BME280;17486;46.738;7.622;2023-05-23T05:55:29;95192.50;;;18.17;57.89
30744;BME280;17486;46.738;7.622;2023-05-23T05:57:54;95194.53;;;18.25;58.01
30744;BME280;17486;46.738;7.622;2023-05-23T06:00:20;95192.94;;;18.33;58.03
30744;BME280;17486;46.738;7.622;2023-05-23T06:02:46;95194.84;;;18.43;58.01
30744;BME280;17486;46.738;7.622;2023-05-23T06:05:12;95193.25;;;18.51;58.07
30744;BME280;17486;46.738;7.622;2023-05-23T06:07:38;95188.56;;;18.55;58.21
30744;BME280;17486;46.738;7.622;2023-05-23T06:10:05;95194.34;;;18.49;58.15
30744;BME280;17486;46.738;7.622;2023-05-23T06:12:31;95184.22;;;18.33;58.30
30744;BME280;17486;46.738;7.622;2023-05-23T06:14:56;95188.63;;;18.44;58.11
30744;BME280;17486;46.738;7.622;2023-05-23T06:17:22;95196.50;;;18.44;58.24
30744;BME280;17486;46.738;7.622;2023-05-23T06:19:47;95189.44;;;18.44;57.63
30744;BME280;17486;46.738;7.622;2023-05-23T06:22:12;95196.38;;;18.45;57.74
30744;BME280;17486;46.738;7.622;2023-05-23T06:24:38;95188.13;;;18.50;57.52
30744;BME280;17486;46.738;7.622;2023-05-23T06:27:03;95201.09;;;18.63;57.86
30744;BME280;17486;46.738;7.622;2023-05-23T06:29:29;95197.69;;;18.72;57.27
30744;BME280;17486;46.738;7.622;2023-05-23T06:31:55;95192.50;;;18.82;56.94
30744;BME280;17486;46.738;7.622;2023-05-23T06:34:21;95198.72;;;18.92;57.04
30744;BME280;17486;46.738;7.622;2023-05-23T06:36:46;95189.75;;;19.04;57.37
30744;BME280;17486;46.738;7.622;2023-05-23T06:39:12;95189.53;;;19.08;57.89
30744;BME280;17486;46.738;7.622;2023-05-23T06:41:38;95185.50;;;19.13;59.68
30744;BME280;17486;46.738;7.622;2023-05-23T06:44:03;95197.41;;;19.29;58.18
30744;BME280;17486;46.738;7.622;2023-05-23T06:46:29;95200.06;;;19.38;57.99
30744;BME280;17486;46.738;7.622;2023-05-23T06:48:55;95198.31;;;19.49;57.62
30744;BME280;17486;46.738;7.622;2023-05-23T06:51:20;95200.72;;;19.62;56.69
30744;BME280;17486;46.738;7.622;2023-05-23T06:53:45;95208.00;;;19.69;56.15
30744;BME280;17486;46.738;7.622;2023-05-23T06:56:11;95190.47;;;19.59;56.34
30744;BME280;17486;46.738;7.622;2023-05-23T06:58:36;95200.16;;;19.58;56.40
30744;BME280;17486;46.738;7.622;2023-05-23T07:01:01;95198.09;;;19.62;56.63
30744;BME280;17486;46.738;7.622;2023-05-23T07:03:27;95205.50;;;19.68;56.86
30744;BME280;17486;46.738;7.622;2023-05-23T07:05:52;95209.66;;;19.70;56.92
30744;BME280;17486;46.738;7.622;2023-05-23T07:08:18;95192.72;;;19.73;58.06
30744;BME280;17486;46.738;7.622;2023-05-23T07:10:43;95205.16;;;19.92;57.56
30744;BME280;17486;46.738;7.622;2023-05-23T07:13:09;95203.09;;;20.05;56.65
30744;BME280;17486;46.738;7.622;2023-05-23T07:15:34;95201.75;;;20.21;56.13
30744;BME280;17486;46.738;7.622;2023-05-23T07:18:00;95193.00;;;20.30;55.78
30744;BME280;17486;46.738;7.622;2023-05-23T07:20:25;95182.03;;;20.25;54.95
30744;BME280;17486;46.738;7.622;2023-05-23T07:22:51;95197.22;;;20.43;54.78
30744;BME280;17486;46.738;7.622;2023-05-23T07:25:17;95203.06;;;20.46;54.52
30744;BME280;17486;46.738;7.622;2023-05-23T07:27:42;95211.81;;;20.47;54.24
30744;BME280;17486;46.738;7.622;2023-05-23T07:30:08;95208.47;;;20.45;53.56
30744;BME280;17486;46.738;7.622;2023-05-23T07:32:36;95201.78;;;20.41;53.25
30744;BME280;17486;46.738;7.622;2023-05-23T07:35:01;95182.16;;;20.24;53.63
30744;BME280;17486;46.738;7.622;2023-05-23T07:37:27;95211.25;;;20.33;54.19
30744;BME280;17486;46.738;7.622;2023-05-23T07:39:53;95213.19;;;20.31;54.63
30744;BME280;17486;46.738;7.622;2023-05-23T07:42:18;95207.91;;;20.41;54.97
30744;BME280;17486;46.738;7.622;2023-05-23T07:44:43;95196.63;;;20.49;54.42
30744;BME280;17486;46.738;7.622;2023-05-23T07:47:09;95193.03;;;20.60;54.58
30744;BME280;17486;46.738;7.622;2023-05-23T07:49:34;95210.03;;;20.77;54.13
30744;BME280;17486;46.738;7.622;2023-05-23T07:52:00;95185.13;;;20.79;53.40
30744;BME280;17486;46.738;7.622;2023-05-23T07:54:25;95195.81;;;20.97;52.70
30744;BME280;17486;46.738;7.622;2023-05-23T07:56:52;95186.09;;;20.98;52.87
30744;BME280;17486;46.738;7.622;2023-05-23T07:59:17;95194.81;;;21.18;52.03
30744;BME280;17486;46.738;7.622;2023-05-23T08:01:43;95188.53;;;21.19;51.39
30744;BME280;17486;46.738;7.622;2023-05-23T08:04:09;95195.06;;;21.25;51.67
30744;BME280;17486;46.738;7.622;2023-05-23T08:06:34;95182.28;;;21.20;51.66
30744;BME280;17486;46.738;7.622;2023-05-23T08:09:00;95199.91;;;21.39;51.60
30744;BME280;17486;46.738;7.622;2023-05-23T08:11:26;95200.84;;;21.48;51.46
30744;BME280;17486;46.738;7.622;2023-05-23T08:13:52;95200.00;;;21.57;51.58
30744;BME280;17486;46.738;7.622;2023-05-23T08:16:18;95202.34;;;21.60;51.45
30744;BME280;17486;46.738;7.622;2023-05-23T08:18:43;95198.31;;;21.66;51.45
30744;BME280;17486;46.738;7.622;2023-05-23T08:21:09;95198.88;;;21.69;51.46
30744;BME280;17486;46.738;7.622;2023-05-23T08:23:34;95199.91;;;21.86;51.66
30744;BME280;17486;46.738;7.622;2023-05-23T08:26:00;95188.53;;;21.94;51.44
30744;BME280;17486;46.738;7.622;2023-05-23T08:28:25;95198.06;;;22.15;51.24
30744;BME280;17486;46.738;7.622;2023-05-23T08:30:51;95197.47;;;22.21;51.24
30744;BME280;17486;46.738;7.622;2023-05-23T08:33:16;95175.50;;;22.11;51.13
30744;BME280;17486;46.738;7.622;2023-05-23T08:35:41;95177.03;;;22.13;51.28
30744;BME280;17486;46.738;7.622;2023-05-23T08:38:08;95193.84;;;22.22;51.81
30744;BME280;17486;46.738;7.622;2023-05-23T08:40:35;95191.94;;;22.14;52.04
30744;BME280;17486;46.738;7.622;2023-05-23T08:43:01;95196.94;;;22.17;52.36
30744;BME280;17486;46.738;7.622;2023-05-23T08:45:26;95203.59;;;22.22;52.68
30744;BME280;17486;46.738;7.622;2023-05-23T08:47:54;95204.44;;;22.22;53.49
30744;BME280;17486;46.738;7.622;2023-05-23T08:50:20;95203.47;;;22.23;53.44
30744;BME280;17486;46.738;7.622;2023-05-23T08:52:55;95202.19;;;22.27;53.54
30744;BME280;17486;46.738;7.622;2023-05-23T08:55:23;95198.53;;;22.28;53.27
30744;BME280;17486;46.738;7.622;2023-05-23T08:57:52;95206.59;;;22.37;54.82
30744;BME280;17486;46.738;7.622;2023-05-23T09:00:18;95210.16;;;22.45;54.08
30744;BME280;17486;46.738;7.622;2023-05-23T09:02:44;95201.44;;;22.53;53.30
30744;BME280;17486;46.738;7.622;2023-05-23T09:05:11;95176.56;;;22.46;53.04
30744;BME280;17486;46.738;7.622;2023-05-23T09:07:37;95173.53;;;22.59;52.97
30744;BME280;17486;46.738;7.622;2023-05-23T09:10:05;95202.44;;;22.88;52.46
30744;BME280;17486;46.738;7.622;2023-05-23T09:12:31;95204.16;;;22.97;52.40
30744;BME280;17486;46.738;7.622;2023-05-23T09:14:57;95185.22;;;22.92;52.22
30744;BME280;17486;46.738;7.622;2023-05-23T09:17:23;95200.91;;;23.04;52.25
30744;BME280;17486;46.738;7.622;2023-05-23T09:19:48;95191.59;;;22.99;52.03
30744;BME280;17486;46.738;7.622;2023-05-23T09:22:14;95201.56;;;23.06;52.44
30744;BME280;17486;46.738;7.622;2023-05-23T09:24:39;95199.28;;;23.11;52.47
30744;BME280;17486;46.738;7.622;2023-05-23T09:27:06;95199.56;;;23.17;52.18
30744;BME280;17486;46.738;7.622;2023-05-23T09:29:32;95198.97;;;23.32;51.94
30744;BME280;17486;46.738;7.622;2023-05-23T09:32:13;95197.69;;;23.36;50.89
30744;BME280;17486;46.738;7.622;2023-05-23T09:37:15;95203.03;;;23.44;49.80
30744;BME280;17486;46.738;7.622;2023-05-23T09:39:45;95207.81;;;23.41;49.80
30744;BME280;17486;46.738;7.622;2023-05-23T09:42:19;95208.91;;;23.30;49.90
30744;BME280;17486;46.738;7.622;2023-05-23T09:44:44;95203.06;;;23.26;50.34
30744;BME280;17486;46.738;7.622;2023-05-23T09:47:10;95200.06;;;23.21;50.52
30744;BME280;17486;46.738;7.622;2023-05-23T09:49:38;95199.84;;;23.14;50.61
30744;BME280;17486;46.738;7.622;2023-05-23T09:52:04;95206.25;;;23.12;50.61
30744;BME280;17486;46.738;7.622;2023-05-23T09:54:29;95187.25;;;22.98;50.99
30744;BME280;17486;46.738;7.622;2023-05-23T09:56:57;95201.88;;;23.02;51.11
30744;BME280;17486;46.738;7.622;2023-05-23T09:59:27;95203.22;;;23.07;50.83
30744;BME280;17486;46.738;7.622;2023-05-23T10:01:56;95204.59;;;23.11;50.64
30744;BME280;17486;46.738;7.622;2023-05-23T10:04:21;95203.06;;;23.08;49.93
30744;BME280;17486;46.738;7.622;2023-05-23T10:06:56;95184.25;;;22.93;49.96
30744;BME280;17486;46.738;7.622;2023-05-23T10:09:25;95200.06;;;23.03;49.74
30744;BME280;17486;46.738;7.622;2023-05-23T10:14:25;95191.28;;;23.02;49.13
30744;BME280;17486;46.738;7.622;2023-05-23T10:20:10;95189.97;;;23.07;48.21
30744;BME280;17486;46.738;7.622;2023-05-23T10:22:37;95187.47;;;23.05;47.72
30744;BME280;17486;46.738;7.622;2023-05-23T10:25:03;95156.03;;;22.92;47.12
30744;BME280;17486;46.738;7.622;2023-05-23T10:27:36;95165.72;;;23.01;47.75
30744;BME280;17486;46.738;7.622;2023-05-23T10:30:02;95167.59;;;23.09;48.01
30744;BME280;17486;46.738;7.622;2023-05-23T10:32:29;95162.78;;;23.05;47.83
30744;BME280;17486;46.738;7.622;2023-05-23T10:35:20;95179.19;;;23.26;47.82
30744;BME280;17486;46.738;7.622;2023-05-23T10:37:55;95177.75;;;23.32;47.49
30744;BME280;17486;46.738;7.622;2023-05-23T10:40:23;95174.59;;;23.37;46.85
30744;BME280;17486;46.738;7.622;2023-05-23T10:42:56;95184.56;;;23.34;46.60
30744;BME280;17486;46.738;7.622;2023-05-23T10:45:26;95183.88;;;23.32;46.41
30744;BME280;17486;46.738;7.622;2023-05-23T10:47:52;95175.22;;;23.30;46.39
30744;BME280;17486;46.738;7.622;2023-05-23T13:59:57;95039.88;;;27.67;38.53
30744;BME280;17486;46.738;7.622;2023-05-23T14:02:22;95043.63;;;27.73;38.34
30744;BME280;17486;46.738;7.622;2023-05-23T14:04:48;95046.78;;;27.76;37.78
30744;BME280;17486;46.738;7.622;2023-05-23T14:07:19;95036.09;;;27.76;37.10
30744;BME280;17486;46.738;7.622;2023-05-23T14:09:44;95032.41;;;27.77;36.54
30744;BME280;17486;46.738;7.622;2023-05-23T14:12:10;95023.19;;;27.80;37.25
30744;BME280;17486;46.738;7.622;2023-05-23T14:14:35;95038.69;;;28.06;37.91
30744;BME280;17486;46.738;7.622;2023-05-23T14:17:00;95031.34;;;28.15;38.18
30744;BME280;17486;46.738;7.622;2023-05-23T14:19:26;95037.72;;;28.36;38.56
30744;BME280;17486;46.738;7.622;2023-05-23T14:21:51;95030.78;;;28.41;37.65
30744;BME280;17486;46.738;7.622;2023-05-23T14:24:17;95043.44;;;28.54;36.67
30744;BME280;17486;46.738;7.622;2023-05-23T14:26:42;95030.06;;;28.54;36.30
30744;BME280;17486;46.738;7.622;2023-05-23T14:29:07;95018.50;;;28.47;35.93
30744;BME280;17486;46.738;7.622;2023-05-23T14:31:33;95019.91;;;28.43;34.64
30744;BME280;17486;46.738;7.622;2023-05-23T14:33:58;95036.00;;;28.28;34.89
30744;BME280;17486;46.738;7.622;2023-05-23T14:36:24;95036.44;;;28.10;34.45
30744;BME280;17486;46.738;7.622;2023-05-23T14:38:50;95011.03;;;27.77;33.88
30744;BME280;17486;46.738;7.622;2023-05-23T14:41:16;95036.00;;;27.70;33.89
30744;BME280;17486;46.738;7.622;2023-05-23T14:43:41;95038.88;;;27.53;34.74
30744;BME280;17486;46.738;7.622;2023-05-23T14:46:07;95047.75;;;27.39;35.44
30744;BME280;17486;46.738;7.622;2023-05-23T14:48:33;95037.41;;;27.21;36.38
30744;BME280;17486;46.738;7.622;2023-05-23T14:50:58;95059.81;;;27.20;36.67
30744;BME280;17486;46.738;7.622;2023-05-23T14:53:26;95057.84;;;27.13;37.13
30744;BME280;17486;46.738;7.622;2023-05-23T14:55:52;95040.53;;;26.94;37.77
30744;BME280;17486;46.738;7.622;2023-05-23T14:58:17;95031.38;;;26.74;38.60
30744;BME280;17486;46.738;7.622;2023-05-23T15:00:43;95041.66;;;26.62;39.25
30744;BME280;17486;46.738;7.622;2023-05-23T15:03:11;95054.59;;;26.50;39.49
30744;BME280;17486;46.738;7.622;2023-05-23T15:05:36;95065.88;;;26.37;39.90
30744;BME280;17486;46.738;7.622;2023-05-23T15:08:02;95055.16;;;26.22;40.78
30744;BME280;17486;46.738;7.622;2023-05-23T15:10:28;95062.91;;;26.09;41.77
30744;BME280;17486;46.738;7.622;2023-05-23T15:12:53;95044.38;;;25.84;42.54
30744;BME280;17486;46.738;7.622;2023-05-23T15:15:19;95056.03;;;25.83;42.60
30744;BME280;17486;46.738;7.622;2023-05-23T15:17:48;95048.09;;;25.75;43.11
30744;BME280;17486;46.738;7.622;2023-05-23T15:20:13;95046.81;;;25.62;43.23
30744;BME280;17486;46.738;7.622;2023-05-23T15:22:39;95046.56;;;25.49;42.64
30744;BME280;17486;46.738;7.622;2023-05-23T15:25:05;95037.16;;;25.22;43.01
30744;BME280;17486;46.738;7.622;2023-05-23T15:27:31;95037.72;;;25.00;42.84
30744;BME280;17486;46.738;7.622;2023-05-23T15:29:56;95047.06;;;24.80;43.04
30744;BME280;17486;46.738;7.622;2023-05-23T15:32:22;95065.22;;;24.68;42.63
30744;BME280;17486;46.738;7.622;2023-05-23T15:34:47;95062.88;;;24.57;43.53
30744;BME280;17486;46.738;7.622;2023-05-23T15:37:12;95053.25;;;24.47;43.92
30744;BME280;17486;46.738;7.622;2023-05-23T15:39:38;95060.38;;;24.39;43.78
30744;BME280;17486;46.738;7.622;2023-05-23T15:42:03;95059.06;;;24.34;43.91
30744;BME280;17486;46.738;7.622;2023-05-23T15:44:29;95054.22;;;24.30;44.17
30744;BME280;17486;46.738;7.622;2023-05-23T15:46:54;95058.91;;;24.28;43.93
30744;BME280;17486;46.738;7.622;2023-05-23T15:49:20;95063.06;;;24.30;45.06
30744;BME280;17486;46.738;7.622;2023-05-23T15:51:45;95054.56;;;24.27;44.98
30744;BME280;17486;46.738;7.622;2023-05-23T15:54:11;95053.41;;;24.21;44.58
30744;BME280;17486;46.738;7.622;2023-05-23T15:56:37;95025.84;;;23.97;44.11
30744;BME280;17486;46.738;7.622;2023-05-23T15:59:02;95048.56;;;24.00;44.29
30744;BME280;17486;46.738;7.622;2023-05-23T16:01:28;95050.56;;;23.90;44.43
30744;BME280;17486;46.738;7.622;2023-05-23T16:03:53;95047.34;;;23.78;44.76
30744;BME280;17486;46.738;7.622;2023-05-23T16:06:19;95044.66;;;23.70;44.66
30744;BME280;17486;46.738;7.622;2023-05-23T16:08:44;95050.78;;;23.62;45.05
30744;BME280;17486;46.738;7.622;2023-05-23T16:11:10;95043.94;;;23.51;45.68
30744;BME280;17486;46.738;7.622;2023-05-23T16:13:35;95054.56;;;23.51;45.90
30744;BME280;17486;46.738;7.622;2023-05-23T16:16:02;95055.56;;;23.50;45.78
30744;BME280;17486;46.738;7.622;2023-05-23T16:18:28;95057.06;;;23.52;47.58
30744;BME280;17486;46.738;7.622;2023-05-23T16:20:53;95060.56;;;23.53;48.25
30744;BME280;17486;46.738;7.622;2023-05-23T16:23:18;95062.06;;;23.56;49.67
30744;BME280;17486;46.738;7.622;2023-05-23T16:25:44;95034.75;;;23.29;49.78